sensor_id;sensor_type;location;lat;lon;timestamp;P1;durP1;ratioP1;P2;durP2;ratioP2
72755;SDS011;60881;55.002;73.232;2022-09-09T00:07:47;15.63;;;5.70;;
72755;SDS011;60881;55.002;73.232;2022-09-09T00:10:31;16.52;;;4.05;;
72755;SDS011;60881;55.002;73.232;2022-09-09T00:13:08;11.90;;;3.97;;
72755;SDS011;60881;55.002;73.232;2022-09-09T00:32:38;5.18;;;2.08;;
72755;SDS011;60881;55.002;73.232;2022-09-09T00:37:58;12.75;;;2.78;;
72755;SDS011;60881;55.002;73.232;2022-09-09T00:40:35;6.15;;;2.10;;
72755;SDS011;60881;55.002;73.232;2022-09-09T00:51:46;11.77;;;2.10;;
72755;SDS011;60881;55.002;73.232;2022-09-09T00:57:35;16.88;;;2.40;;
72755;SDS011;60881;55.002;73.232;2022-09-09T01:00:22;15.75;;;2.72;;
72755;SDS011;60881;55.002;73.232;2022-09-09T01:03:10;29.25;;;2.70;;
72755;SDS011;60881;55.002;73.232;2022-09-09T01:06:11;17.02;;;2.55;;
72755;SDS011;60881;55.002;73.232;2022-09-09T01:11:33;15.35;;;2.45;;
72755;SDS011;60881;55.002;73.232;2022-09-09T01:14:32;9.93;;;2.35;;
72755;SDS011;60881;55.002;73.232;2022-09-09T01:20:10;17.60;;;2.28;;
72755;SDS011;60881;55.002;73.232;2022-09-09T01:23:10;22.25;;;2.30;;
72755;SDS011;60881;55.002;73.232;2022-09-09T01:28:40;15.40;;;2.00;;
72755;SDS011;60881;55.002;73.232;2022-09-09T01:31:26;16.77;;;2.30;;
72755;SDS011;60881;55.002;73.232;2022-09-09T01:33:57;19.70;;;3.15;;
72755;SDS011;60881;55.002;73.232;2022-09-09T01:39:06;7.00;;;2.30;;
72755;SDS011;60881;55.002;73.232;2022-09-09T01:41:41;9.30;;;2.38;;
72755;SDS011;60881;55.002;73.232;2022-09-09T01:44:10;20.63;;;2.45;;
72755;SDS011;60881;55.002;73.232;2022-09-09T01:46:45;13.82;;;2.60;;
72755;SDS011;60881;55.002;73.232;2022-09-09T01:49:20;16.50;;;2.30;;
72755;SDS011;60881;55.002;73.232;2022-09-09T01:51:49;14.93;;;2.60;;
72755;SDS011;60881;55.002;73.232;2022-09-09T01:54:23;19.67;;;2.60;;
72755;SDS011;60881;55.002;73.232;2022-09-09T02:00:03;17.10;;;2.40;;
72755;SDS011;60881;55.002;73.232;2022-09-09T02:03:05;20.70;;;2.28;;
72755;SDS011;60881;55.002;73.232;2022-09-09T02:09:12;9.82;;;2.22;;
72755;SDS011;60881;55.002;73.232;2022-09-09T02:11:42;17.30;;;2.40;;
72755;SDS011;60881;55.002;73.232;2022-09-09T02:14:33;13.45;;;2.28;;
72755;SDS011;60881;55.002;73.232;2022-09-09T02:17:07;18.08;;;2.05;;
72755;SDS011;60881;55.002;73.232;2022-09-09T02:20:09;14.48;;;2.10;;
72755;SDS011;60881;55.002;73.232;2022-09-09T02:22:55;18.05;;;2.20;;
72755;SDS011;60881;55.002;73.232;2022-09-09T02:25:29;10.50;;;1.88;;
72755;SDS011;60881;55.002;73.232;2022-09-09T02:28:06;16.88;;;2.25;;
72755;SDS011;60881;55.002;73.232;2022-09-09T02:30:35;9.55;;;2.15;;
72755;SDS011;60881;55.002;73.232;2022-09-09T02:33:05;17.73;;;2.10;;
72755;SDS011;60881;55.002;73.232;2022-09-09T02:35:48;21.13;;;2.00;;
72755;SDS011;60881;55.002;73.232;2022-09-09T02:38:20;20.88;;;2.38;;
72755;SDS011;60881;55.002;73.232;2022-09-09T02:41:07;21.70;;;2.38;;
72755;SDS011;60881;55.002;73.232;2022-09-09T02:43:45;24.73;;;2.08;;
72755;SDS011;60881;55.002;73.232;2022-09-09T02:49:12;14.02;;;2.00;;
72755;SDS011;60881;55.002;73.232;2022-09-09T02:52:04;35.72;;;2.30;;
72755;SDS011;60881;55.002;73.232;2022-09-09T02:54:35;31.75;;;2.03;;
72755;SDS011;60881;55.002;73.232;2022-09-09T02:57:25;10.40;;;1.73;;
72755;SDS011;60881;55.002;73.232;2022-09-09T02:59:56;14.88;;;1.80;;
72755;SDS011;60881;55.002;73.232;2022-09-09T03:02:24;12.77;;;1.80;;
72755;SDS011;60881;55.002;73.232;2022-09-09T03:04:56;8.52;;;1.50;;
72755;SDS011;60881;55.002;73.232;2022-09-09T03:07:22;15.20;;;1.48;;
72755;SDS011;60881;55.002;73.232;2022-09-09T03:09:50;21.25;;;1.50;;
72755;SDS011;60881;55.002;73.232;2022-09-09T03:12:28;14.90;;;1.70;;
72755;SDS011;60881;55.002;73.232;2022-09-09T03:14:55;8.68;;;1.48;;
72755;SDS011;60881;55.002;73.232;2022-09-09T03:17:23;5.97;;;1.40;;
72755;SDS011;60881;55.002;73.232;2022-09-09T03:19:53;6.93;;;1.40;;
72755;SDS011;60881;55.002;73.232;2022-09-09T03:22:31;12.63;;;1.67;;
72755;SDS011;60881;55.002;73.232;2022-09-09T03:24:59;6.03;;;1.38;;
72755;SDS011;60881;55.002;73.232;2022-09-09T03:27:28;8.27;;;1.25;;
72755;SDS011;60881;55.002;73.232;2022-09-09T03:30:00;3.85;;;1.10;;
72755;SDS011;60881;55.002;73.232;2022-09-09T03:32:39;8.43;;;1.20;;
72755;SDS011;60881;55.002;73.232;2022-09-09T03:35:11;10.27;;;1.33;;
72755;SDS011;60881;55.002;73.232;2022-09-09T03:37:37;9.23;;;1.30;;
72755;SDS011;60881;55.002;73.232;2022-09-09T03:40:05;6.30;;;1.45;;
72755;SDS011;60881;55.002;73.232;2022-09-09T03:42:36;8.52;;;1.27;;
72755;SDS011;60881;55.002;73.232;2022-09-09T03:45:04;10.07;;;1.35;;
72755;SDS011;60881;55.002;73.232;2022-09-09T03:47:32;9.82;;;1.20;;
72755;SDS011;60881;55.002;73.232;2022-09-09T03:50:09;6.40;;;1.50;;
72755;SDS011;60881;55.002;73.232;2022-09-09T03:52:44;6.43;;;1.40;;
72755;SDS011;60881;55.002;73.232;2022-09-09T03:55:19;15.15;;;1.40;;
72755;SDS011;60881;55.002;73.232;2022-09-09T03:57:46;8.60;;;1.10;;
72755;SDS011;60881;55.002;73.232;2022-09-09T04:00:12;14.63;;;1.20;;
72755;SDS011;60881;55.002;73.232;2022-09-09T04:02:43;4.82;;;1.20;;
72755;SDS011;60881;55.002;73.232;2022-09-09T04:05:13;6.85;;;1.10;;
72755;SDS011;60881;55.002;73.232;2022-09-09T04:07:43;3.85;;;1.05;;
72755;SDS011;60881;55.002;73.232;2022-09-09T04:10:19;7.28;;;1.00;;
72755;SDS011;60881;55.002;73.232;2022-09-09T04:12:57;4.45;;;0.85;;
72755;SDS011;60881;55.002;73.232;2022-09-09T04:15:23;5.93;;;0.90;;
72755;SDS011;60881;55.002;73.232;2022-09-09T04:17:49;5.50;;;0.93;;
72755;SDS011;60881;55.002;73.232;2022-09-09T04:20:16;3.88;;;0.70;;
72755;SDS011;60881;55.002;73.232;2022-09-09T04:22:44;6.28;;;1.00;;
72755;SDS011;60881;55.002;73.232;2022-09-09T04:25:12;10.30;;;0.80;;
72755;SDS011;60881;55.002;73.232;2022-09-09T04:27:39;3.17;;;0.80;;
72755;SDS011;60881;55.002;73.232;2022-09-09T04:30:08;6.50;;;0.80;;
72755;SDS011;60881;55.002;73.232;2022-09-09T04:32:36;8.63;;;0.70;;
72755;SDS011;60881;55.002;73.232;2022-09-09T04:35:03;4.63;;;0.70;;
72755;SDS011;60881;55.002;73.232;2022-09-09T04:37:36;3.30;;;0.60;;
72755;SDS011;60881;55.002;73.232;2022-09-09T04:40:11;1.48;;;0.63;;
72755;SDS011;60881;55.002;73.232;2022-09-09T04:42:38;2.10;;;0.60;;
72755;SDS011;60881;55.002;73.232;2022-09-09T04:45:11;9.77;;;1.02;;
72755;SDS011;60881;55.002;73.232;2022-09-09T04:47:43;2.10;;;0.70;;
72755;SDS011;60881;55.002;73.232;2022-09-09T04:50:17;3.75;;;0.70;;
72755;SDS011;60881;55.002;73.232;2022-09-09T04:52:46;6.22;;;0.80;;
72755;SDS011;60881;55.002;73.232;2022-09-09T04:55:18;4.55;;;0.82;;
72755;SDS011;60881;55.002;73.232;2022-09-09T04:57:45;3.50;;;0.60;;
72755;SDS011;60881;55.002;73.232;2022-09-09T05:00:16;12.43;;;0.80;;
72755;SDS011;60881;55.002;73.232;2022-09-09T05:02:43;12.57;;;0.88;;
72755;SDS011;60881;55.002;73.232;2022-09-09T05:05:10;4.90;;;0.80;;
72755;SDS011;60881;55.002;73.232;2022-09-09T05:07:38;1.00;;;0.47;;
72755;SDS011;60881;55.002;73.232;2022-09-09T05:10:05;2.40;;;0.63;;
72755;SDS011;60881;55.002;73.232;2022-09-09T05:12:32;7.40;;;0.70;;
72755;SDS011;60881;55.002;73.232;2022-09-09T05:15:03;6.40;;;0.80;;
72755;SDS011;60881;55.002;73.232;2022-09-09T05:17:37;5.18;;;0.80;;
72755;SDS011;60881;55.002;73.232;2022-09-09T05:20:14;10.63;;;0.80;;
72755;SDS011;60881;55.002;73.232;2022-09-09T05:22:45;5.35;;;0.60;;
72755;SDS011;60881;55.002;73.232;2022-09-09T05:25:16;8.80;;;0.68;;
72755;SDS011;60881;55.002;73.232;2022-09-09T05:27:43;14.57;;;0.70;;
72755;SDS011;60881;55.002;73.232;2022-09-09T05:30:10;9.60;;;0.88;;
72755;SDS011;60881;55.002;73.232;2022-09-09T05:32:37;10.65;;;0.93;;
72755;SDS011;60881;55.002;73.232;2022-09-09T05:35:03;6.47;;;1.15;;
72755;SDS011;60881;55.002;73.232;2022-09-09T05:37:35;8.32;;;1.30;;
72755;SDS011;60881;55.002;73.232;2022-09-09T05:40:02;20.33;;;1.60;;
72755;SDS011;60881;55.002;73.232;2022-09-09T05:45:04;8.63;;;1.13;;
72755;SDS011;60881;55.002;73.232;2022-09-09T05:47:33;12.88;;;1.00;;
72755;SDS011;60881;55.002;73.232;2022-09-09T05:50:01;5.93;;;0.93;;
72755;SDS011;60881;55.002;73.232;2022-09-09T05:52:37;9.32;;;1.10;;
72755;SDS011;60881;55.002;73.232;2022-09-09T05:55:10;14.73;;;1.40;;
72755;SDS011;60881;55.002;73.232;2022-09-09T05:57:36;10.30;;;1.27;;
72755;SDS011;60881;55.002;73.232;2022-09-09T06:00:08;10.20;;;1.10;;
72755;SDS011;60881;55.002;73.232;2022-09-09T06:02:50;8.00;;;0.98;;
72755;SDS011;60881;55.002;73.232;2022-09-09T06:05:19;14.02;;;1.15;;
72755;SDS011;60881;55.002;73.232;2022-09-09T06:07:45;7.28;;;1.00;;
72755;SDS011;60881;55.002;73.232;2022-09-09T06:10:24;6.78;;;0.80;;
72755;SDS011;60881;55.002;73.232;2022-09-09T06:12:52;4.63;;;1.00;;
72755;SDS011;60881;55.002;73.232;2022-09-09T06:15:24;5.65;;;0.85;;
72755;SDS011;60881;55.002;73.232;2022-09-09T06:18:01;4.90;;;1.08;;
72755;SDS011;60881;55.002;73.232;2022-09-09T06:20:29;3.80;;;0.98;;
72755;SDS011;60881;55.002;73.232;2022-09-09T06:23:03;3.17;;;0.80;;
72755;SDS011;60881;55.002;73.232;2022-09-09T06:25:41;17.85;;;1.15;;
72755;SDS011;60881;55.002;73.232;2022-09-09T06:28:08;12.23;;;0.80;;
72755;SDS011;60881;55.002;73.232;2022-09-09T06:30:34;6.82;;;1.02;;
72755;SDS011;60881;55.002;73.232;2022-09-09T06:33:06;13.75;;;1.10;;
72755;SDS011;60881;55.002;73.232;2022-09-09T06:35:36;4.47;;;0.82;;
72755;SDS011;60881;55.002;73.232;2022-09-09T06:38:12;3.30;;;0.80;;
72755;SDS011;60881;55.002;73.232;2022-09-09T06:40:39;7.82;;;0.85;;
72755;SDS011;60881;55.002;73.232;2022-09-09T06:45:54;11.50;;;0.77;;
72755;SDS011;60881;55.002;73.232;2022-09-09T06:48:34;7.60;;;0.80;;
72755;SDS011;60881;55.002;73.232;2022-09-09T06:51:05;6.32;;;0.65;;
72755;SDS011;60881;55.002;73.232;2022-09-09T06:53:45;6.22;;;0.85;;
72755;SDS011;60881;55.002;73.232;2022-09-09T06:58:52;9.50;;;0.90;;
72755;SDS011;60881;55.002;73.232;2022-09-09T07:01:27;7.95;;;0.68;;
72755;SDS011;60881;55.002;73.232;2022-09-09T07:04:04;15.90;;;1.17;;
72755;SDS011;60881;55.002;73.232;2022-09-09T07:06:45;17.10;;;1.60;;
72755;SDS011;60881;55.002;73.232;2022-09-09T07:09:16;11.20;;;1.00;;
72755;SDS011;60881;55.002;73.232;2022-09-09T07:11:47;7.82;;;1.05;;
72755;SDS011;60881;55.002;73.232;2022-09-09T07:14:17;8.45;;;0.90;;
72755;SDS011;60881;55.002;73.232;2022-09-09T07:16:53;8.57;;;0.80;;
72755;SDS011;60881;55.002;73.232;2022-09-09T07:19:20;7.70;;;1.05;;
72755;SDS011;60881;55.002;73.232;2022-09-09T07:21:55;8.63;;;0.70;;
72755;SDS011;60881;55.002;73.232;2022-09-09T07:24:23;7.93;;;1.00;;
72755;SDS011;60881;55.002;73.232;2022-09-09T07:26:55;7.78;;;0.90;;
72755;SDS011;60881;55.002;73.232;2022-09-09T07:29:22;10.65;;;0.90;;
72755;SDS011;60881;55.002;73.232;2022-09-09T07:31:50;7.60;;;1.08;;
72755;SDS011;60881;55.002;73.232;2022-09-09T07:34:22;7.90;;;1.10;;
72755;SDS011;60881;55.002;73.232;2022-09-09T07:36:48;4.72;;;0.70;;
72755;SDS011;60881;55.002;73.232;2022-09-09T07:39:18;10.18;;;1.48;;
72755;SDS011;60881;55.002;73.232;2022-09-09T07:41:49;15.77;;;1.40;;
72755;SDS011;60881;55.002;73.232;2022-09-09T07:44:23;13.65;;;1.05;;
72755;SDS011;60881;55.002;73.232;2022-09-09T07:46:59;13.50;;;1.20;;
72755;SDS011;60881;55.002;73.232;2022-09-09T07:49:33;10.43;;;0.80;;
72755;SDS011;60881;55.002;73.232;2022-09-09T07:52:03;13.48;;;1.23;;
72755;SDS011;60881;55.002;73.232;2022-09-09T07:54:32;9.63;;;1.02;;
72755;SDS011;60881;55.002;73.232;2022-09-09T07:57:00;11.02;;;0.90;;
72755;SDS011;60881;55.002;73.232;2022-09-09T07:59:36;10.95;;;1.00;;
72755;SDS011;60881;55.002;73.232;2022-09-09T08:02:13;13.68;;;1.27;;
72755;SDS011;60881;55.002;73.232;2022-09-09T08:04:45;12.82;;;1.40;;
72755;SDS011;60881;55.002;73.232;2022-09-09T08:07:14;11.50;;;1.48;;
72755;SDS011;60881;55.002;73.232;2022-09-09T08:09:47;8.00;;;1.47;;
72755;SDS011;60881;55.002;73.232;2022-09-09T08:12:20;11.85;;;1.60;;
72755;SDS011;60881;55.002;73.232;2022-09-09T08:14:48;10.25;;;2.38;;
72755;SDS011;60881;55.002;73.232;2022-09-09T08:17:16;9.77;;;1.67;;
72755;SDS011;60881;55.002;73.232;2022-09-09T08:19:47;15.77;;;1.60;;
72755;SDS011;60881;55.002;73.232;2022-09-09T08:22:19;16.83;;;1.60;;
72755;SDS011;60881;55.002;73.232;2022-09-09T08:24:46;19.55;;;1.25;;
72755;SDS011;60881;55.002;73.232;2022-09-09T08:27:23;16.25;;;1.67;;
72755;SDS011;60881;55.002;73.232;2022-09-09T08:29:51;9.88;;;1.70;;
72755;SDS011;60881;55.002;73.232;2022-09-09T08:32:18;11.88;;;1.55;;
72755;SDS011;60881;55.002;73.232;2022-09-09T08:34:46;15.20;;;1.17;;
72755;SDS011;60881;55.002;73.232;2022-09-09T08:39:48;10.73;;;1.83;;
72755;SDS011;60881;55.002;73.232;2022-09-09T08:42:27;9.27;;;1.13;;
72755;SDS011;60881;55.002;73.232;2022-09-09T08:50:28;22.27;;;1.83;;
72755;SDS011;60881;55.002;73.232;2022-09-09T08:53:22;20.05;;;2.00;;
72755;SDS011;60881;55.002;73.232;2022-09-09T08:56:02;15.23;;;2.40;;
72755;SDS011;60881;55.002;73.232;2022-09-09T08:58:50;14.82;;;3.30;;
72755;SDS011;60881;55.002;73.232;2022-09-09T09:01:40;20.52;;;2.20;;
72755;SDS011;60881;55.002;73.232;2022-09-09T09:07:32;14.68;;;1.60;;
72755;SDS011;60881;55.002;73.232;2022-09-09T09:12:52;16.25;;;1.90;;
72755;SDS011;60881;55.002;73.232;2022-09-09T09:15:25;12.75;;;1.90;;
72755;SDS011;60881;55.002;73.232;2022-09-09T09:17:56;9.55;;;1.65;;
72755;SDS011;60881;55.002;73.232;2022-09-09T09:23:57;15.00;;;1.40;;
72755;SDS011;60881;55.002;73.232;2022-09-09T09:26:30;13.53;;;1.60;;
72755;SDS011;60881;55.002;73.232;2022-09-09T09:28:59;7.72;;;1.60;;
72755;SDS011;60881;55.002;73.232;2022-09-09T09:31:35;19.80;;;1.60;;
72755;SDS011;60881;55.002;73.232;2022-09-09T09:34:02;9.77;;;2.33;;
72755;SDS011;60881;55.002;73.232;2022-09-09T09:37:12;26.45;;;6.15;;
72755;SDS011;60881;55.002;73.232;2022-09-09T09:39:29;20.80;;;1.67;;
72755;SDS011;60881;55.002;73.232;2022-09-09T09:42:12;16.48;;;2.33;;
72755;SDS011;60881;55.002;73.232;2022-09-09T09:44:42;13.95;;;2.00;;
72755;SDS011;60881;55.002;73.232;2022-09-09T09:47:19;15.93;;;1.70;;
72755;SDS011;60881;55.002;73.232;2022-09-09T09:52:56;10.05;;;3.08;;
72755;SDS011;60881;55.002;73.232;2022-09-09T09:55:27;7.88;;;1.90;;
72755;SDS011;60881;55.002;73.232;2022-09-09T09:58:01;10.88;;;1.95;;
72755;SDS011;60881;55.002;73.232;2022-09-09T10:00:34;14.63;;;2.00;;
72755;SDS011;60881;55.002;73.232;2022-09-09T10:03:19;14.80;;;4.55;;
72755;SDS011;60881;55.002;73.232;2022-09-09T10:06:09;12.13;;;1.77;;
72755;SDS011;60881;55.002;73.232;2022-09-09T10:08:44;11.68;;;2.63;;
72755;SDS011;60881;55.002;73.232;2022-09-09T10:11:18;12.95;;;2.70;;
72755;SDS011;60881;55.002;73.232;2022-09-09T10:21:53;17.15;;;2.25;;
72755;SDS011;60881;55.002;73.232;2022-09-09T10:29:47;24.25;;;2.30;;
72755;SDS011;60881;55.002;73.232;2022-09-09T10:35:30;15.48;;;2.33;;
72755;SDS011;60881;55.002;73.232;2022-09-09T10:52:36;14.18;;;2.05;;
72755;SDS011;60881;55.002;73.232;2022-09-09T10:55:35;39.92;;;3.20;;
72755;SDS011;60881;55.002;73.232;2022-09-09T10:58:10;29.90;;;4.38;;
72755;SDS011;60881;55.002;73.232;2022-09-09T11:00:48;30.48;;;5.35;;
72755;SDS011;60881;55.002;73.232;2022-09-09T11:03:34;18.08;;;2.65;;
72755;SDS011;60881;55.002;73.232;2022-09-09T11:06:06;16.00;;;3.13;;
72755;SDS011;60881;55.002;73.232;2022-09-09T11:08:39;18.67;;;2.80;;
72755;SDS011;60881;55.002;73.232;2022-09-09T11:11:21;30.50;;;7.10;;
72755;SDS011;60881;55.002;73.232;2022-09-09T11:14:08;22.98;;;3.72;;
72755;SDS011;60881;55.002;73.232;2022-09-09T11:16:42;19.23;;;2.53;;
72755;SDS011;60881;55.002;73.232;2022-09-09T11:21:52;17.55;;;2.72;;
72755;SDS011;60881;55.002;73.232;2022-09-09T11:24:29;47.15;;;4.38;;
72755;SDS011;60881;55.002;73.232;2022-09-09T11:27:20;18.63;;;2.70;;
72755;SDS011;60881;55.002;73.232;2022-09-09T11:38:18;21.33;;;3.28;;
72755;SDS011;60881;55.002;73.232;2022-09-09T11:43:52;10.55;;;2.30;;
72755;SDS011;60881;55.002;73.232;2022-09-09T11:46:40;28.20;;;2.13;;
72755;SDS011;60881;55.002;73.232;2022-09-09T11:49:21;14.45;;;2.42;;
72755;SDS011;60881;55.002;73.232;2022-09-09T11:51:57;23.17;;;1.98;;
72755;SDS011;60881;55.002;73.232;2022-09-09T11:54:33;14.65;;;1.77;;
72755;SDS011;60881;55.002;73.232;2022-09-09T11:57:23;13.65;;;2.40;;
72755;SDS011;60881;55.002;73.232;2022-09-09T12:00:27;19.43;;;2.30;;
72755;SDS011;60881;55.002;73.232;2022-09-09T12:06:11;21.20;;;2.17;;
72755;SDS011;60881;55.002;73.232;2022-09-09T12:08:41;12.45;;;2.15;;
72755;SDS011;60881;55.002;73.232;2022-09-09T12:11:28;16.45;;;3.90;;
72755;SDS011;60881;55.002;73.232;2022-09-09T12:14:02;13.77;;;2.50;;
72755;SDS011;60881;55.002;73.232;2022-09-09T12:16:35;10.60;;;2.42;;
72755;SDS011;60881;55.002;73.232;2022-09-09T12:22:03;9.13;;;2.20;;
72755;SDS011;60881;55.002;73.232;2022-09-09T12:27:23;20.77;;;5.00;;
72755;SDS011;60881;55.002;73.232;2022-09-09T12:32:35;21.42;;;7.25;;
72755;SDS011;60881;55.002;73.232;2022-09-09T12:35:04;31.20;;;8.88;;
72755;SDS011;60881;55.002;73.232;2022-09-09T12:40:05;35.60;;;9.00;;
72755;SDS011;60881;55.002;73.232;2022-09-09T12:42:46;31.17;;;8.98;;
72755;SDS011;60881;55.002;73.232;2022-09-09T12:45:16;33.72;;;8.45;;
72755;SDS011;60881;55.002;73.232;2022-09-09T12:50:30;30.02;;;7.30;;
72755;SDS011;60881;55.002;73.232;2022-09-09T12:53:03;30.92;;;7.68;;
72755;SDS011;60881;55.002;73.232;2022-09-09T12:55:36;29.35;;;7.55;;
72755;SDS011;60881;55.002;73.232;2022-09-09T12:58:14;33.35;;;6.65;;
72755;SDS011;60881;55.002;73.232;2022-09-09T13:00:50;23.70;;;6.72;;
72755;SDS011;60881;55.002;73.232;2022-09-09T13:03:24;20.67;;;6.70;;
72755;SDS011;60881;55.002;73.232;2022-09-09T13:05:50;34.35;;;19.80;;
72755;SDS011;60881;55.002;73.232;2022-09-09T13:08:19;23.80;;;6.75;;
72755;SDS011;60881;55.002;73.232;2022-09-09T13:10:50;19.30;;;4.47;;
72755;SDS011;60881;55.002;73.232;2022-09-09T13:13:24;20.60;;;4.70;;
72755;SDS011;60881;55.002;73.232;2022-09-09T13:15:54;12.63;;;3.30;;
72755;SDS011;60881;55.002;73.232;2022-09-09T13:18:27;11.25;;;3.10;;
72755;SDS011;60881;55.002;73.232;2022-09-09T13:21:01;14.55;;;2.88;;
72755;SDS011;60881;55.002;73.232;2022-09-09T13:23:30;16.42;;;3.45;;
72755;SDS011;60881;55.002;73.232;2022-09-09T13:26:00;30.45;;;3.80;;
72755;SDS011;60881;55.002;73.232;2022-09-09T13:28:32;19.13;;;3.70;;
72755;SDS011;60881;55.002;73.232;2022-09-09T13:33:34;28.75;;;3.25;;
72755;SDS011;60881;55.002;73.232;2022-09-09T13:36:12;14.57;;;3.00;;
72755;SDS011;60881;55.002;73.232;2022-09-09T13:41:18;21.15;;;4.80;;
72755;SDS011;60881;55.002;73.232;2022-09-09T13:43:52;20.92;;;4.30;;
72755;SDS011;60881;55.002;73.232;2022-09-09T13:46:33;17.63;;;2.70;;
72755;SDS011;60881;55.002;73.232;2022-09-09T13:51:45;23.52;;;2.47;;
72755;SDS011;60881;55.002;73.232;2022-09-09T13:54:15;23.20;;;2.90;;
72755;SDS011;60881;55.002;73.232;2022-09-09T13:56:45;22.65;;;3.97;;
72755;SDS011;60881;55.002;73.232;2022-09-09T13:59:14;18.95;;;3.40;;
72755;SDS011;60881;55.002;73.232;2022-09-09T14:01:48;27.20;;;3.97;;
72755;SDS011;60881;55.002;73.232;2022-09-09T14:04:30;26.55;;;3.10;;
72755;SDS011;60881;55.002;73.232;2022-09-09T14:06:57;14.95;;;3.00;;
72755;SDS011;60881;55.002;73.232;2022-09-09T14:09:25;27.98;;;2.88;;
72755;SDS011;60881;55.002;73.232;2022-09-09T14:12:02;17.02;;;2.97;;
72755;SDS011;60881;55.002;73.232;2022-09-09T14:14:28;20.63;;;4.00;;
72755;SDS011;60881;55.002;73.232;2022-09-09T14:16:55;30.75;;;3.80;;
72755;SDS011;60881;55.002;73.232;2022-09-09T14:19:21;21.60;;;3.25;;
72755;SDS011;60881;55.002;73.232;2022-09-09T14:21:48;19.35;;;3.08;;
72755;SDS011;60881;55.002;73.232;2022-09-09T14:24:26;23.30;;;2.90;;
72755;SDS011;60881;55.002;73.232;2022-09-09T14:26:56;28.13;;;2.35;;
72755;SDS011;60881;55.002;73.232;2022-09-09T14:29:27;31.33;;;2.20;;
72755;SDS011;60881;55.002;73.232;2022-09-09T14:32:04;15.15;;;2.05;;
72755;SDS011;60881;55.002;73.232;2022-09-09T14:34:41;15.82;;;2.30;;
72755;SDS011;60881;55.002;73.232;2022-09-09T14:37:07;21.05;;;2.10;;
72755;SDS011;60881;55.002;73.232;2022-09-09T14:39:34;25.15;;;2.33;;
72755;SDS011;60881;55.002;73.232;2022-09-09T14:42:01;13.30;;;2.10;;
72755;SDS011;60881;55.002;73.232;2022-09-09T14:44:28;19.58;;;2.10;;
72755;SDS011;60881;55.002;73.232;2022-09-09T14:46:54;16.83;;;2.90;;
72755;SDS011;60881;55.002;73.232;2022-09-09T14:49:21;13.93;;;5.28;;
72755;SDS011;60881;55.002;73.232;2022-09-09T14:51:57;28.00;;;7.72;;
72755;SDS011;60881;55.002;73.232;2022-09-09T14:54:34;19.08;;;6.85;;
72755;SDS011;60881;55.002;73.232;2022-09-09T14:57:02;26.33;;;6.30;;
72755;SDS011;60881;55.002;73.232;2022-09-09T14:59:28;21.45;;;6.25;;
72755;SDS011;60881;55.002;73.232;2022-09-09T15:01:56;24.73;;;5.35;;
72755;SDS011;60881;55.002;73.232;2022-09-09T15:04:23;15.65;;;4.30;;
72755;SDS011;60881;55.002;73.232;2022-09-09T15:06:50;10.00;;;3.15;;
72755;SDS011;60881;55.002;73.232;2022-09-09T15:09:18;10.68;;;2.80;;
72755;SDS011;60881;55.002;73.232;2022-09-09T15:11:49;14.82;;;2.78;;
72755;SDS011;60881;55.002;73.232;2022-09-09T15:14:21;14.32;;;2.85;;
72755;SDS011;60881;55.002;73.232;2022-09-09T15:16:47;15.25;;;3.05;;
72755;SDS011;60881;55.002;73.232;2022-09-09T15:19:15;13.48;;;2.70;;
72755;SDS011;60881;55.002;73.232;2022-09-09T15:21:41;16.63;;;2.30;;
72755;SDS011;60881;55.002;73.232;2022-09-09T15:24:08;10.68;;;2.40;;
72755;SDS011;60881;55.002;73.232;2022-09-09T15:26:36;17.45;;;2.40;;
72755;SDS011;60881;55.002;73.232;2022-09-09T15:29:04;13.80;;;2.38;;
72755;SDS011;60881;55.002;73.232;2022-09-09T15:31:31;12.00;;;2.22;;
72755;SDS011;60881;55.002;73.232;2022-09-09T15:34:05;22.58;;;3.78;;
72755;SDS011;60881;55.002;73.232;2022-09-09T15:36:36;19.77;;;3.45;;
72755;SDS011;60881;55.002;73.232;2022-09-09T15:39:05;25.30;;;4.88;;
72755;SDS011;60881;55.002;73.232;2022-09-09T15:41:34;22.95;;;6.07;;
72755;SDS011;60881;55.002;73.232;2022-09-09T15:44:00;32.08;;;6.82;;
72755;SDS011;60881;55.002;73.232;2022-09-09T15:46:38;37.15;;;8.43;;
72755;SDS011;60881;55.002;73.232;2022-09-09T15:49:15;52.30;;;9.85;;
72755;SDS011;60881;55.002;73.232;2022-09-09T15:51:54;37.45;;;10.48;;
72755;SDS011;60881;55.002;73.232;2022-09-09T15:54:33;27.48;;;5.95;;
72755;SDS011;60881;55.002;73.232;2022-09-09T15:57:09;11.65;;;3.33;;
72755;SDS011;60881;55.002;73.232;2022-09-09T15:59:48;18.77;;;4.85;;
72755;SDS011;60881;55.002;73.232;2022-09-09T16:02:14;21.88;;;4.43;;
72755;SDS011;60881;55.002;73.232;2022-09-09T16:04:41;16.17;;;3.90;;
72755;SDS011;60881;55.002;73.232;2022-09-09T16:07:07;14.57;;;3.38;;
72755;SDS011;60881;55.002;73.232;2022-09-09T16:09:34;16.75;;;2.90;;
72755;SDS011;60881;55.002;73.232;2022-09-09T16:12:06;17.15;;;3.15;;
72755;SDS011;60881;55.002;73.232;2022-09-09T16:14:35;18.58;;;3.15;;
72755;SDS011;60881;55.002;73.232;2022-09-09T16:17:03;35.30;;;14.25;;
72755;SDS011;60881;55.002;73.232;2022-09-09T16:19:31;50.20;;;21.05;;
72755;SDS011;60881;55.002;73.232;2022-09-09T16:21:58;52.33;;;19.38;;
72755;SDS011;60881;55.002;73.232;2022-09-09T16:24:35;50.00;;;17.58;;
72755;SDS011;60881;55.002;73.232;2022-09-09T16:27:01;42.25;;;14.48;;
72755;SDS011;60881;55.002;73.232;2022-09-09T16:29:29;48.58;;;17.08;;
72755;SDS011;60881;55.002;73.232;2022-09-09T16:32:07;82.25;;;39.55;;
72755;SDS011;60881;55.002;73.232;2022-09-09T16:34:38;76.38;;;32.42;;
72755;SDS011;60881;55.002;73.232;2022-09-09T16:37:11;78.55;;;35.83;;
72755;SDS011;60881;55.002;73.232;2022-09-09T16:39:47;68.25;;;34.78;;
72755;SDS011;60881;55.002;73.232;2022-09-09T16:42:14;80.35;;;34.28;;
72755;SDS011;60881;55.002;73.232;2022-09-09T16:44:42;54.95;;;24.17;;
72755;SDS011;60881;55.002;73.232;2022-09-09T16:47:11;43.55;;;20.13;;
72755;SDS011;60881;55.002;73.232;2022-09-09T16:49:37;52.83;;;21.00;;
72755;SDS011;60881;55.002;73.232;2022-09-09T16:52:05;48.90;;;19.98;;
72755;SDS011;60881;55.002;73.232;2022-09-09T16:54:36;51.15;;;21.85;;
72755;SDS011;60881;55.002;73.232;2022-09-09T16:57:03;47.85;;;22.00;;
72755;SDS011;60881;55.002;73.232;2022-09-09T16:59:30;45.30;;;22.30;;
72755;SDS011;60881;55.002;73.232;2022-09-09T17:01:58;54.00;;;21.33;;
72755;SDS011;60881;55.002;73.232;2022-09-09T17:04:26;51.38;;;20.42;;
72755;SDS011;60881;55.002;73.232;2022-09-09T17:06:53;53.55;;;18.95;;
72755;SDS011;60881;55.002;73.232;2022-09-09T17:09:21;51.15;;;18.80;;
72755;SDS011;60881;55.002;73.232;2022-09-09T17:11:50;43.13;;;15.18;;
72755;SDS011;60881;55.002;73.232;2022-09-09T17:14:19;32.55;;;10.30;;
72755;SDS011;60881;55.002;73.232;2022-09-09T17:16:56;40.33;;;10.80;;
72755;SDS011;60881;55.002;73.232;2022-09-09T17:19:23;28.00;;;9.18;;
72755;SDS011;60881;55.002;73.232;2022-09-09T17:21:54;32.22;;;9.70;;
72755;SDS011;60881;55.002;73.232;2022-09-09T17:24:27;41.92;;;14.90;;
72755;SDS011;60881;55.002;73.232;2022-09-09T17:26:56;45.10;;;16.88;;
72755;SDS011;60881;55.002;73.232;2022-09-09T17:29:24;50.00;;;15.93;;
72755;SDS011;60881;55.002;73.232;2022-09-09T17:32:02;38.35;;;15.30;;
72755;SDS011;60881;55.002;73.232;2022-09-09T17:34:31;37.63;;;14.60;;